Terminal Aerodrome Forecast
Issued by NWS Wilmington, NC

Current Version | Previous Version | Graphics & Text | Print | Product List | Glossary Off
Versions: 1 2 3 4 5 6 7 8 9 10 11 12 13 14 15 16 17 18 19 20 21

000
FTUS42 KILM 210500
TAFILM
TAF
KILM 210539Z 2106/2206 01013G20KT P6SM OVC035
     FM211400 34012G18KT P6SM SCT035 SCT080
     FM211700 36012KT P6SM FEW035 SCT060
     FM212300 02008KT P6SM FEW025=

USA.gov is the U.S. government's official web portal to all federal, state and local government web resources and services.